Latest Weather Observations for Minlaton Airport

IDS60801

Issued at 12:42 am CST Wednesday 23 September 2020 (issued every 10 minutes, with the page automatically refreshed every 10 minutes)

About weather observations | Map of weather stations | Latest weather observations for SA | Other Formats
Station Details ID: 022031 Name: MINLATON AERO Lat: -34.75 Lon: 137.53 Height: 32.0 m
Data from the previous 72 hours. | See also: Recent months at Minlaton Airport
Date/Time
CST
Temp
°C
App
Temp
°C
Dew
Point
°C
Rel
Hum
%
Delta-T
°C
Wind Press
QNH
hPa
Press
MSL
hPa
Rain since
9am
mm
Dir  Spd
km/h
Gust
km/h
Spd
kts
Gust
kts
23/12:30am 11.3 4.7 7.6 78 1.8 W 32 46 17 25 1017.4 1017.4 -
23/12:00am 11.0 4.1 7.3 78 1.8 W 33 44 18 24 1017.4 1017.4 -
 
Date/Time
CST
Temp
°C
App
Temp
°C
Dew
Point
°C
Rel
Hum
%
Delta-T
°C
Wind Press
QNH
hPa
Press
MSL
hPa
Rain since
9am
mm
Dir  Spd
km/h
Gust
km/h
Spd
kts
Gust
kts
22/11:30pm 10.9 6.1 8.8 87 1.0 WSW 24 33 13 18 1017.4 1017.4 -
22/11:19pm 10.3 3.7 7.7 84 1.3 WSW 32 50 17 27 1017.5 1017.5 -
22/11:00pm 11.3 4.6 8.3 82 1.5 W 33 46 18 25 1017.5 1017.5 -
22/10:30pm 10.5 4.5 8.6 88 0.9 W 30 41 16 22 1017.5 1017.5 -
22/10:00pm 12.4 6.0 8.7 78 1.8 W 32 46 17 25 1017.5 1017.5 -
22/09:30pm 11.8 4.4 8.3 79 1.7 W 37 52 20 28 1017.5 1017.5 -
22/09:00pm 12.2 4.8 8.5 78 1.8 W 37 52 20 28 1017.3 1017.3 -
22/08:46pm 12.4 5.8 7.9 74 2.2 W 32 50 17 27 1017.2 1017.2 -
22/08:30pm 12.1 6.5 8.6 79 1.7 W 28 39 15 21 1017.2 1017.2 -
22/08:00pm 12.2 5.8 8.7 79 1.7 W 32 44 17 24 1016.9 1016.9 -
22/07:30pm 12.1 5.6 9.1 82 1.5 W 33 46 18 25 1016.6 1016.6 -
22/07:00pm 11.3 5.8 9.0 86 1.1 W 28 39 15 21 1016.3 1016.3 -
22/06:30pm 11.6 5.4 9.3 86 1.2 W 32 46 17 25 1015.9 1015.9 -
22/06:26pm 11.9 6.6 10.0 88 1.0 W 28 46 15 25 1015.8 1015.8 -
22/06:00pm 11.4 7.2 9.8 90 0.8 W 22 30 12 16 1015.6 1015.6 -
22/05:30pm 12.0 6.7 9.9 87 1.1 W 28 39 15 21 1015.4 1015.4 -
22/05:00pm 13.3 6.8 8.8 74 2.3 W 33 43 18 23 1014.9 1014.9 -
22/04:30pm 14.5 7.6 8.7 68 2.9 WSW 35 46 19 25 1014.5 1014.5 -
22/04:00pm 15.3 9.2 9.7 69 2.9 W 32 43 17 23 1014.3 1014.3 -
22/03:30pm 15.2 8.5 9.6 69 2.9 W 35 46 19 25 1014.3 1014.3 -
22/03:00pm 14.5 7.3 9.1 70 2.8 W 37 46 20 25 1014.1 1014.1 -
22/02:30pm 15.8 7.8 9.0 64 3.5 W 41 54 22 29 1014.0 1014.0 -
22/02:09pm 15.3 7.8 9.4 68 3.0 W 39 57 21 31 1013.8 1013.8 -
22/02:00pm 15.2 8.2 10.0 71 2.7 W 37 50 20 27 1013.8 1013.8 -
22/01:30pm 12.9 6.5 10.8 87 1.1 W 35 46 19 25 1013.9 1013.9 -
22/01:00pm 14.7 7.0 10.3 75 2.3 W 41 54 22 29 1013.8 1013.8 -
22/12:40pm 13.9 7.3 11.4 85 1.3 W 37 56 20 30 1013.8 1013.8 -
22/12:30pm 15.3 7.1 9.7 69 2.9 W 43 54 23 29 1013.6 1013.6 -
22/12:00pm 13.3 7.5 11.4 88 1.0 W 33 52 18 28 1013.7 1013.7 -
22/11:49am 14.3 7.2 9.7 74 2.4 WNW 37 57 20 31 1013.6 1013.6 -
22/11:30am 15.2 7.8 9.8 70 2.8 WNW 39 56 21 30 1013.5 1013.5 -
22/11:04am 13.4 7.6 11.5 88 1.0 WNW 33 52 18 28 1013.4 1013.4 -
22/11:00am 12.8 6.5 10.9 88 1.0 WNW 35 52 19 28 1013.4 1013.4 -
22/10:42am 15.3 8.1 9.0 66 3.2 WNW 37 56 20 30 1013.1 1013.1 -
22/10:30am 14.7 7.1 9.1 69 2.9 WNW 39 56 21 30 1013.0 1013.0 -
22/10:00am 14.0 6.0 9.0 72 2.5 WNW 41 54 22 29 1012.8 1012.8 -
22/09:38am 14.5 6.5 8.9 69 2.8 WNW 41 59 22 32 1012.6 1012.6 -
22/09:30am 13.3 5.4 9.2 76 2.1 W 41 57 22 31 1012.6 1012.6 -
22/09:05am 14.2 6.5 8.8 70 2.7 WNW 39 57 21 31 1012.3 1012.3 -
22/09:00am 13.9 6.3 9.1 73 2.4 WNW 39 50 21 27 1012.4 1012.4 -
22/08:30am 13.2 5.9 10.2 82 1.6 WNW 39 54 21 29 1012.0 1012.0 -
22/08:04am 12.4 6.2 10.0 85 1.2 WNW 33 52 18 28 1011.6 1011.6 -
22/08:00am 12.2 6.3 10.3 88 1.0 WNW 32 41 17 22 1011.6 1011.6 -
22/07:36am 12.0 5.2 9.4 84 1.3 W 35 54 19 29 1011.4 1011.4 -
22/07:30am 12.3 6.1 10.2 87 1.1 WNW 33 48 18 26 1011.1 1011.1 -
22/07:00am 10.8 4.4 9.2 90 0.8 WNW 33 44 18 24 1010.9 1010.9 -
22/06:30am 11.5 3.9 8.9 84 1.3 WNW 39 57 21 31 1010.2 1010.2 -
22/06:02am 12.1 4.7 8.4 78 1.8 W 37 57 20 31 1009.9 1009.9 -
22/06:00am 12.1 4.7 8.4 78 1.8 W 37 52 20 28 1009.8 1009.8 -
22/05:30am 11.3 3.9 8.2 81 1.5 WNW 37 56 20 30 1009.5 1009.5 -
22/05:28am 11.3 3.9 8.3 82 1.5 WNW 37 56 20 30 1009.4 1009.4 -
22/05:00am 11.8 4.4 8.5 80 1.6 WNW 37 48 20 26 1009.0 1009.0 -
22/04:44am 11.5 3.7 8.4 81 1.5 WNW 39 57 21 31 1008.9 1008.9 -
22/04:30am 11.3 3.7 8.9 85 1.2 WNW 39 56 21 30 1008.8 1008.8 -
22/04:00am 11.1 3.6 9.4 89 0.9 W 39 57 21 31 1008.7 1008.7 -
22/03:50am 11.3 3.8 9.4 88 1.0 WNW 39 59 21 32 1008.6 1008.6 -
22/03:30am 11.4 3.5 9.5 88 1.0 WNW 41 57 22 31 1008.4 1008.4 -
22/03:03am 11.1 3.2 9.4 89 0.9 WNW 41 59 22 32 1008.6 1008.6 -
22/03:00am 11.1 3.1 9.0 87 1.0 WNW 41 57 22 31 1008.6 1008.6 -
22/02:30am 12.0 4.1 9.2 83 1.4 WNW 41 65 22 35 1008.4 1008.4 -
22/02:21am 11.8 3.4 8.8 82 1.5 WNW 43 65 23 35 1008.4 1008.4 -
22/02:00am 11.5 4.3 9.1 85 1.2 WNW 37 52 20 28 1008.5 1008.5 -
22/01:38am 11.6 4.9 9.5 87 1.1 WNW 35 57 19 31 1008.7 1008.7 -
22/01:30am 11.6 5.9 9.7 88 1.0 WNW 30 43 16 23 1008.6 1008.6 -
22/01:00am 11.2 5.1 9.6 90 0.8 WNW 32 41 17 22 1008.9 1008.9 -
22/12:35am 12.1 5.2 8.9 81 1.6 WNW 35 54 19 29 1008.9 1008.9 -
22/12:30am 12.4 5.5 8.9 79 1.8 WNW 35 48 19 26 1008.8 1008.8 -
22/12:00am 12.6 4.1 8.5 76 2.0 WNW 43 61 23 33 1008.7 1008.7 -
 
Date/Time
CST
Temp
°C
App
Temp
°C
Dew
Point
°C
Rel
Hum
%
Delta-T
°C
Wind Press
QNH
hPa
Press
MSL
hPa
Rain since
9am
mm
Dir  Spd
km/h
Gust
km/h
Spd
kts
Gust
kts
21/11:30pm 12.3 4.6 8.8 79 1.8 WNW 39 57 21 31 1008.6 1008.6 -
21/11:24pm 12.8 5.2 8.9 77 2.0 WNW 39 57 21 31 1008.4 1008.4 -
21/11:00pm 12.0 5.4 8.5 79 1.7 WNW 33 48 18 26 1008.5 1008.5 -
21/10:52pm 11.9 5.3 8.7 81 1.6 WNW 33 52 18 28 1008.5 1008.5 -
21/10:30pm 12.0 4.3 8.8 81 1.6 WNW 39 54 21 29 1008.6 1008.6 -
21/10:15pm 11.6 4.7 9.0 84 1.3 WNW 35 54 19 29 1008.6 1008.6 -
21/10:00pm 11.5 5.1 9.4 87 1.1 WNW 33 48 18 26 1008.5 1008.5 -
21/09:39pm 11.3 6.0 9.9 91 0.7 WNW 28 50 15 27 1008.7 1008.7 -
21/09:30pm 11.1 5.0 9.7 91 0.7 WNW 32 46 17 25 1008.9 1008.9 -
21/09:14pm 11.8 5.6 9.9 88 1.0 WNW 33 54 18 29 1008.9 1008.9 -
21/09:00pm 11.9 5.7 10.1 89 0.9 WNW 33 50 18 27 1008.6 1008.6 -
21/08:30pm 12.4 4.7 10.0 85 1.2 W 41 52 22 28 1008.1 1008.1 -
21/08:23pm 13.4 5.6 8.3 71 2.5 WNW 39 52 21 28 1008.0 1008.0 -
21/08:00pm 13.7 7.0 9.6 76 2.1 WNW 35 50 19 27 1007.7 1007.7 -
21/07:30pm 13.8 6.9 9.0 73 2.4 WNW 35 46 19 25 1007.1 1007.1 -
21/07:00pm 14.3 8.3 10.1 76 2.2 NW 32 43 17 23 1006.6 1006.6 -
21/06:30pm 13.7 8.5 10.3 80 1.8 NW 28 39 15 21 1006.3 1006.3 -
21/06:00pm 14.0 7.9 9.6 75 2.3 NW 32 41 17 22 1006.1 1006.1 -
21/05:30pm 14.5 8.0 9.1 70 2.8 WNW 33 44 18 24 1005.8 1005.8 -
21/05:00pm 14.3 7.1 9.1 71 2.7 WNW 37 48 20 26 1005.6 1005.6 -
21/04:30pm 13.6 6.1 9.5 76 2.1 WNW 39 56 21 30 1005.3 1005.3 -
21/04:19pm 14.1 6.2 9.5 74 2.4 W 41 59 22 32 1005.1 1005.1 -
21/04:00pm 16.3 8.4 9.3 63 3.6 WNW 41 57 22 31 1005.0 1005.0 -
21/03:30pm 18.4 12.2 10.0 58 4.5 WNW 33 44 18 24 1004.7 1004.7 -
21/03:00pm 17.6 10.0 9.2 58 4.4 WNW 39 52 21 28 1004.6 1004.6 -
21/02:30pm 18.0 11.0 8.3 53 5.0 NW 35 50 19 27 1004.7 1004.7 -
21/02:00pm 17.2 10.9 9.6 61 4.0 WNW 33 43 18 23 1004.7 1004.7 -
21/01:30pm 17.8 10.8 8.4 54 4.9 WNW 35 46 19 25 1004.8 1004.8 -
21/01:00pm 18.8 12.2 10.1 57 4.7 WNW 35 50 19 27 1004.8 1004.8 -
21/12:30pm 18.9 12.4 10.2 57 4.7 NW 35 46 19 25 1004.9 1004.9 -
21/12:00pm 18.0 9.9 9.9 59 4.3 NW 43 57 23 31 1004.9 1004.9 -
21/11:30am 17.9 8.9 9.0 56 4.7 NW 46 65 25 35 1004.9 1004.9 -
21/11:12am 18.1 8.9 7.8 51 5.2 NW 46 65 25 35 1004.9 1004.9 -
21/11:00am 18.4 9.7 8.4 52 5.2 NW 44 59 24 32 1004.7 1004.7 -
21/10:39am 17.8 8.4 7.0 49 5.4 NW 46 67 25 36 1004.7 1004.7 -
21/10:30am 17.4 7.4 6.3 48 5.5 NW 48 63 26 34 1004.6 1004.6 -
21/10:01am 17.0 7.9 6.8 51 5.1 NNW 44 63 24 34 1004.5 1004.5 -
21/10:00am 16.9 7.3 6.4 50 5.2 NNW 46 63 25 34 1004.4 1004.4 -
21/09:30am 16.4 6.6 5.1 47 5.4 NNW 46 65 25 35 1004.4 1004.4 -
21/09:03am 16.2 6.3 4.9 47 5.4 NNW 46 65 25 35 1004.2 1004.2 -
21/09:00am 16.0 6.1 5.0 48 5.2 NNW 46 63 25 34 1004.1 1004.1 -
21/08:30am 15.4 6.3 5.9 53 4.6 N 43 63 23 34 1004.1 1004.1 -
21/08:27am 15.4 7.0 5.6 52 4.7 N 39 63 21 34 1004.4 1004.4 -
21/08:00am 13.8 6.2 5.7 58 3.8 N 35 48 19 26 1004.0 1004.0 -
21/07:30am 11.3 4.5 5.2 66 2.8 N 30 41 16 22 1004.3 1004.3 -
21/07:00am 9.9 3.5 5.3 73 2.1 N 28 35 15 19 1004.3 1004.3 -
21/06:30am 8.6 3.0 5.5 81 1.4 NNE 24 30 13 16 1004.5 1004.5 -
21/06:00am 7.8 2.1 5.1 83 1.2 N 24 30 13 16 1004.7 1004.7 -
21/05:30am 7.8 2.8 4.7 81 1.4 N 20 22 11 12 1004.7 1004.7 -
21/05:00am 9.5 5.3 5.9 78 1.7 N 17 20 9 11 1004.7 1004.7 -
21/04:30am 10.3 6.1 5.7 73 2.1 NNW 17 20 9 11 1004.9 1004.9 -
21/04:00am 11.1 6.5 5.6 69 2.5 NW 19 26 10 14 1005.1 1005.1 -
21/03:30am 11.7 6.9 5.8 67 2.8 NW 20 28 11 15 1005.3 1005.3 -
21/03:00am 11.9 6.5 6.2 68 2.7 WNW 24 35 13 19 1005.2 1005.2 -
21/02:30am 12.3 6.5 6.1 66 2.9 WNW 26 35 14 19 1005.3 1005.3 -
21/02:00am 12.3 6.9 6.4 67 2.8 WNW 24 32 13 17 1005.8 1005.8 -
21/01:30am 12.8 7.5 6.6 66 3.0 WNW 24 35 13 19 1006.6 1006.6 -
21/01:00am 12.7 7.2 6.1 64 3.1 WNW 24 33 13 18 1006.9 1006.9 -
21/12:30am 13.0 7.6 6.4 64 3.2 WNW 24 35 13 19 1006.9 1006.9 -
21/12:00am 12.9 6.2 5.8 62 3.4 WNW 30 43 16 23 1007.0 1007.0 -
 
Date/Time
CST
Temp
°C
App
Temp
°C
Dew
Point
°C
Rel
Hum
%
Delta-T
°C
Wind Press
QNH
hPa
Press
MSL
hPa
Rain since
9am
mm
Dir  Spd
km/h
Gust
km/h
Spd
kts
Gust
kts
20/11:30pm 13.3 6.8 6.6 64 3.2 WNW 30 41 16 22 1007.3 1007.3 -
20/11:00pm 14.2 7.4 7.9 66 3.1 WNW 33 44 18 24 1007.4 1007.4 -
20/10:30pm 14.4 8.1 7.5 63 3.4 WNW 30 41 16 22 1007.1 1007.1 -
20/10:00pm 14.3 9.4 8.3 67 3.0 W 24 35 13 19 1006.9 1006.9 -
20/09:30pm 14.4 8.3 8.1 66 3.2 W 30 43 16 23 1006.6 1006.6 -
20/09:00pm 14.9 8.2 8.2 64 3.4 W 33 54 18 29 1006.5 1006.5 -
20/08:54pm 14.9 9.3 8.8 67 3.1 W 28 54 15 29 1006.3 1006.3 -
20/08:30pm 14.9 9.1 9.5 70 2.8 WNW 30 39 16 21 1005.7 1005.7 -
20/08:00pm 15.2 8.5 9.8 70 2.8 W 35 48 19 26 1005.4 1005.4 -
20/07:54pm 15.4 10.1 9.7 69 3.0 WNW 28 48 15 26 1005.3 1005.3 -
20/07:30pm 15.4 12.3 10.4 72 2.6 WNW 17 26 9 14 1004.9 1004.9 -
20/07:00pm 15.7 11.6 10.2 70 2.9 WSW 22 35 12 19 1004.1 1004.1 -
20/06:30pm 16.0 11.3 10.7 71 2.8 WSW 26 39 14 21 1003.2 1003.2 -
20/06:06pm 16.8 11.4 12.3 75 2.5 W 32 50 17 27 1002.4 1002.4 -
20/06:00pm 17.0 10.7 12.3 74 2.6 W 37 50 20 27 1002.1 1002.1 -
20/05:30pm 17.8 12.8 12.3 70 3.1 W 30 44 16 24 1001.7 1001.7 -
20/05:00pm 18.3 13.9 13.0 71 3.0 W 28 41 15 22 1001.1 1001.0 -
20/04:30pm 19.8 13.6 11.3 58 4.7 W 35 57 19 31 1000.5 1000.4 -
20/04:24pm 20.4 14.4 10.8 54 5.2 W 33 52 18 28 1000.3 1000.2 -
20/04:19pm 21.0 15.2 10.8 52 5.6 WNW 32 46 17 25 1000.3 1000.2 -
20/04:00pm 21.6 14.9 12.2 55 5.3 NW 39 54 21 29 999.9 999.8 -
20/03:50pm 22.6 14.7 12.8 54 5.6 NW 46 63 25 34 999.7 999.6 -
20/03:49pm 22.3 14.3 12.3 53 5.7 NW 46 63 25 34 999.7 999.6 -
20/03:30pm 24.0 15.7 11.3 45 7.2 N 46 65 25 35 998.4 998.3 -
20/03:00pm 25.7 16.8 10.7 39 8.5 N 48 67 26 36 998.4 998.3 -
20/02:30pm 27.1 19.0 9.9 34 9.6 N 43 61 23 33 998.6 998.5 -
20/02:11pm 27.4 20.0 9.7 33 9.8 N 39 57 21 31 998.8 998.7 -
20/02:00pm 27.7 20.3 10.0 33 9.9 N 39 52 21 28 998.9 998.8 -
20/01:40pm 27.4 19.5 9.3 32 10.0 N 41 59 22 32 999.0 998.9 -
20/01:30pm 26.6 18.2 9.5 34 9.5 N 44 59 24 32 999.2 999.1 -
20/01:21pm 26.5 18.6 9.4 34 9.4 N 41 59 22 32 999.3 999.2 -
20/01:00pm 26.3 18.8 9.6 35 9.2 N 39 54 21 29 999.9 999.8 -
20/12:42pm 26.0 19.5 10.2 37 8.8 N 35 54 19 29 1000.4 1000.3 -
20/12:30pm 26.0 20.1 11.0 39 8.5 N 33 46 18 25 1000.7 1000.6 -
20/12:00pm 24.6 18.3 11.2 43 7.6 N 35 50 19 27 1001.5 1001.5 -
20/11:49am 23.9 17.6 10.9 44 7.2 NNW 35 54 19 29 1001.9 1001.9 -
20/11:30am 23.8 18.2 12.1 48 6.7 NNW 33 46 18 25 1002.5 1002.5 -
20/11:00am 22.8 16.1 9.6 43 7.2 N 35 48 19 26 1003.1 1003.1 -
20/10:30am 22.5 16.6 10.6 47 6.6 NNW 32 44 17 24 1003.7 1003.7 -
20/10:00am 21.4 17.6 13.6 61 4.5 NNW 26 37 14 20 1004.0 1004.0 -
20/09:30am 20.3 16.2 12.8 62 4.3 N 26 35 14 19 1004.2 1004.2 -
20/09:00am 18.8 14.0 13.0 69 3.3 N 30 39 16 21 1004.1 1004.1 -
20/08:30am 17.4 13.0 12.9 75 2.5 N 28 41 15 22 1004.8 1004.8 -
20/08:00am 15.2 11.6 13.1 87 1.2 N 24 32 13 17 1005.2 1005.2 -
20/07:30am 13.5 11.1 12.6 94 0.5 N 17 22 9 12 1005.4 1005.4 -
20/07:00am 12.1 9.3 11.3 95 0.4 N 17 20 9 11 1005.2 1005.2 -
20/06:30am 11.1 8.0 10.3 95 0.4 NNE 17 20 9 11 1004.9 1004.9 -
20/06:00am 11.4 8.7 10.5 94 0.5 NNE 15 20 8 11 1004.7 1004.7 -
20/05:30am 11.7 8.7 10.8 94 0.5 NNE 17 20 9 11 1004.8 1004.8 -
20/05:00am 11.9 9.4 11.0 94 0.5 N 15 17 8 9 1004.8 1004.8 -
20/04:30am 13.4 11.3 12.5 94 0.5 NNW 15 19 8 10 1005.0 1005.0 -
20/04:00am 13.5 11.8 12.6 94 0.5 NNW 13 19 7 10 1005.3 1005.3 -
20/03:30am 12.7 10.4 11.8 94 0.5 NNW 15 20 8 11 1005.4 1005.4 -
20/03:00am 12.9 10.3 12.0 94 0.5 NNW 17 20 9 11 1005.2 1005.2 -
20/02:30am 13.2 10.3 12.3 94 0.5 NNW 19 24 10 13 1005.8 1005.8 -
20/02:00am 13.7 11.3 12.8 94 0.5 NNW 17 24 9 13 1006.1 1006.1 -
20/01:30am 13.4 11.4 12.6 95 0.4 NNW 15 20 8 11 1006.4 1006.4 -
20/01:00am 12.2 10.1 11.3 94 0.5 N 13 15 7 8 1006.6 1006.6 -

Other formats

Comma delimited format used in spreadsheet applications
http://www.bom.gov.au/fwo/IDS60801/IDS60801.95659.axf

JavaScript Object Notation format (JSON) in row-major order
http://www.bom.gov.au/fwo/IDS60801/IDS60801.95659.json

Data quality

Most of these data are generated automatically and are frequently updated. Quality checks on data are not normally performed. It is possible for incorrect values to appear. Refer to information at About Latest Weather Observations and please check the disclaimer before using these data.